sensor_id;sensor_type;location;lat;lon;timestamp;P1;durP1;ratioP1;P2;durP2;ratioP2
26157;SDS011;67284;44.782;10.282;2023-04-08T00:04:28;25.88;;;17.45;;
26157;SDS011;67284;44.782;10.282;2023-04-08T00:09:20;19.75;;;14.43;;
26157;SDS011;67284;44.782;10.282;2023-04-08T00:14:12;17.58;;;13.52;;
26157;SDS011;67284;44.782;10.282;2023-04-08T00:19:04;19.48;;;13.90;;
26157;SDS011;67284;44.782;10.282;2023-04-08T00:23:57;15.90;;;12.95;;
26157;SDS011;67284;44.782;10.282;2023-04-08T00:28:49;18.50;;;13.20;;
26157;SDS011;67284;44.782;10.282;2023-04-08T00:33:41;21.05;;;13.82;;
26157;SDS011;67284;44.782;10.282;2023-04-08T00:38:34;20.23;;;12.85;;
26157;SDS011;67284;44.782;10.282;2023-04-08T00:43:26;21.90;;;14.65;;
26157;SDS011;67284;44.782;10.282;2023-04-08T00:48:18;18.63;;;13.98;;
26157;SDS011;67284;44.782;10.282;2023-04-08T00:53:10;17.75;;;13.27;;
26157;SDS011;67284;44.782;10.282;2023-04-08T00:58:02;16.88;;;13.15;;
26157;SDS011;67284;44.782;10.282;2023-04-08T01:03:29;17.77;;;12.20;;
26157;SDS011;67284;44.782;10.282;2023-04-08T01:08:19;15.63;;;11.82;;
26157;SDS011;67284;44.782;10.282;2023-04-08T01:13:16;15.57;;;11.57;;
26157;SDS011;67284;44.782;10.282;2023-04-08T01:18:10;14.27;;;11.15;;
26157;SDS011;67284;44.782;10.282;2023-04-08T01:23:21;14.60;;;11.60;;
26157;SDS011;67284;44.782;10.282;2023-04-08T01:28:21;15.85;;;12.27;;
26157;SDS011;67284;44.782;10.282;2023-04-08T01:33:15;14.77;;;11.02;;
26157;SDS011;67284;44.782;10.282;2023-04-08T01:38:10;15.95;;;12.45;;
26157;SDS011;67284;44.782;10.282;2023-04-08T01:43:06;17.35;;;12.52;;
26157;SDS011;67284;44.782;10.282;2023-04-08T01:48:01;20.83;;;13.57;;
26157;SDS011;67284;44.782;10.282;2023-04-08T01:52:54;17.67;;;13.93;;
26157;SDS011;67284;44.782;10.282;2023-04-08T01:57:48;17.73;;;13.05;;
26157;SDS011;67284;44.782;10.282;2023-04-08T02:02:41;20.92;;;13.60;;
26157;SDS011;67284;44.782;10.282;2023-04-08T02:07:35;18.63;;;12.85;;
26157;SDS011;67284;44.782;10.282;2023-04-08T02:12:27;19.92;;;13.85;;
26157;SDS011;67284;44.782;10.282;2023-04-08T02:27:56;14.20;;;11.73;;
26157;SDS011;67284;44.782;10.282;2023-04-08T02:32:50;18.95;;;11.65;;
26157;SDS011;67284;44.782;10.282;2023-04-08T02:37:45;19.58;;;12.00;;
26157;SDS011;67284;44.782;10.282;2023-04-08T02:42:38;15.80;;;11.20;;
26157;SDS011;67284;44.782;10.282;2023-04-08T02:47:30;16.38;;;11.95;;
26157;SDS011;67284;44.782;10.282;2023-04-08T02:52:22;18.20;;;13.23;;
26157;SDS011;67284;44.782;10.282;2023-04-08T02:57:13;17.08;;;12.38;;
26157;SDS011;67284;44.782;10.282;2023-04-08T03:02:07;17.55;;;12.02;;
26157;SDS011;67284;44.782;10.282;2023-04-08T03:06:59;16.30;;;12.27;;
26157;SDS011;67284;44.782;10.282;2023-04-08T03:11:51;18.02;;;11.73;;
26157;SDS011;67284;44.782;10.282;2023-04-08T03:16:45;18.38;;;13.27;;
26157;SDS011;67284;44.782;10.282;2023-04-08T03:21:37;18.85;;;14.15;;
26157;SDS011;67284;44.782;10.282;2023-04-08T03:26:28;19.08;;;13.48;;
26157;SDS011;67284;44.782;10.282;2023-04-08T03:31:20;17.15;;;12.93;;
26157;SDS011;67284;44.782;10.282;2023-04-08T03:36:12;23.77;;;14.20;;
26157;SDS011;67284;44.782;10.282;2023-04-08T03:41:04;19.20;;;14.25;;
26157;SDS011;67284;44.782;10.282;2023-04-08T03:45:56;17.80;;;13.88;;
26157;SDS011;67284;44.782;10.282;2023-04-08T03:50:48;18.92;;;14.95;;
26157;SDS011;67284;44.782;10.282;2023-04-08T03:55:40;27.95;;;15.57;;
26157;SDS011;67284;44.782;10.282;2023-04-08T04:00:31;20.20;;;14.70;;
26157;SDS011;67284;44.782;10.282;2023-04-08T04:05:23;26.80;;;13.93;;
26157;SDS011;67284;44.782;10.282;2023-04-08T04:10:15;20.83;;;13.98;;
26157;SDS011;67284;44.782;10.282;2023-04-08T04:15:07;18.65;;;14.55;;
26157;SDS011;67284;44.782;10.282;2023-04-08T04:19:59;23.05;;;14.05;;
26157;SDS011;67284;44.782;10.282;2023-04-08T04:24:54;22.58;;;15.25;;
26157;SDS011;67284;44.782;10.282;2023-04-08T04:29:46;20.70;;;14.52;;
26157;SDS011;67284;44.782;10.282;2023-04-08T04:34:38;20.67;;;14.20;;
26157;SDS011;67284;44.782;10.282;2023-04-08T04:39:30;21.70;;;15.32;;
26157;SDS011;67284;44.782;10.282;2023-04-08T04:44:22;24.15;;;15.13;;
26157;SDS011;67284;44.782;10.282;2023-04-08T04:49:14;24.25;;;14.15;;
26157;SDS011;67284;44.782;10.282;2023-04-08T04:54:06;20.90;;;15.52;;
26157;SDS011;67284;44.782;10.282;2023-04-08T04:58:58;21.88;;;16.10;;
26157;SDS011;67284;44.782;10.282;2023-04-08T05:03:49;24.38;;;15.98;;
26157;SDS011;67284;44.782;10.282;2023-04-08T05:08:41;23.05;;;16.48;;
26157;SDS011;67284;44.782;10.282;2023-04-08T05:13:33;24.42;;;15.73;;
26157;SDS011;67284;44.782;10.282;2023-04-08T05:18:25;22.80;;;15.40;;
26157;SDS011;67284;44.782;10.282;2023-04-08T05:23:17;25.52;;;16.67;;
26157;SDS011;67284;44.782;10.282;2023-04-08T05:28:09;22.98;;;16.63;;
26157;SDS011;67284;44.782;10.282;2023-04-08T05:33:01;24.92;;;16.15;;
26157;SDS011;67284;44.782;10.282;2023-04-08T05:37:53;25.50;;;15.95;;
26157;SDS011;67284;44.782;10.282;2023-04-08T05:42:44;22.48;;;16.23;;
26157;SDS011;67284;44.782;10.282;2023-04-08T05:47:36;21.70;;;15.52;;
26157;SDS011;67284;44.782;10.282;2023-04-08T05:52:28;25.02;;;16.67;;
26157;SDS011;67284;44.782;10.282;2023-04-08T05:57:20;21.95;;;15.07;;
26157;SDS011;67284;44.782;10.282;2023-04-08T06:02:12;22.77;;;16.55;;
26157;SDS011;67284;44.782;10.282;2023-04-08T06:07:04;22.80;;;15.75;;
26157;SDS011;67284;44.782;10.282;2023-04-08T06:11:56;20.83;;;15.48;;
26157;SDS011;67284;44.782;10.282;2023-04-08T06:16:48;22.88;;;15.85;;
26157;SDS011;67284;44.782;10.282;2023-04-08T06:21:40;21.63;;;15.98;;
26157;SDS011;67284;44.782;10.282;2023-04-08T06:26:32;22.83;;;16.02;;
26157;SDS011;67284;44.782;10.282;2023-04-08T06:31:24;27.42;;;16.83;;
26157;SDS011;67284;44.782;10.282;2023-04-08T06:36:16;25.35;;;17.00;;
26157;SDS011;67284;44.782;10.282;2023-04-08T06:41:08;21.65;;;15.38;;
26157;SDS011;67284;44.782;10.282;2023-04-08T06:46:00;21.73;;;15.95;;
26157;SDS011;67284;44.782;10.282;2023-04-08T06:50:52;23.45;;;16.88;;
26157;SDS011;67284;44.782;10.282;2023-04-08T06:55:43;25.05;;;17.42;;
26157;SDS011;67284;44.782;10.282;2023-04-08T07:00:35;24.38;;;16.65;;
26157;SDS011;67284;44.782;10.282;2023-04-08T07:05:27;24.90;;;17.00;;
26157;SDS011;67284;44.782;10.282;2023-04-08T07:10:19;24.25;;;16.38;;
26157;SDS011;67284;44.782;10.282;2023-04-08T07:15:11;26.80;;;17.45;;
26157;SDS011;67284;44.782;10.282;2023-04-08T07:20:03;24.25;;;17.58;;
26157;SDS011;67284;44.782;10.282;2023-04-08T07:24:55;24.40;;;15.55;;
26157;SDS011;67284;44.782;10.282;2023-04-08T07:29:51;27.08;;;18.00;;
26157;SDS011;67284;44.782;10.282;2023-04-08T07:34:44;29.50;;;19.63;;
26157;SDS011;67284;44.782;10.282;2023-04-08T07:39:36;29.60;;;19.80;;
26157;SDS011;67284;44.782;10.282;2023-04-08T07:44:27;33.88;;;21.13;;
26157;SDS011;67284;44.782;10.282;2023-04-08T07:49:19;34.00;;;21.55;;
26157;SDS011;67284;44.782;10.282;2023-04-08T07:54:11;37.47;;;24.05;;
26157;SDS011;67284;44.782;10.282;2023-04-08T07:59:07;37.42;;;24.55;;
26157;SDS011;67284;44.782;10.282;2023-04-08T08:04:02;39.42;;;24.23;;
26157;SDS011;67284;44.782;10.282;2023-04-08T08:08:54;43.38;;;25.70;;
26157;SDS011;67284;44.782;10.282;2023-04-08T08:13:46;42.65;;;27.17;;
26157;SDS011;67284;44.782;10.282;2023-04-08T08:18:39;42.90;;;26.98;;
26157;SDS011;67284;44.782;10.282;2023-04-08T08:23:31;46.25;;;28.15;;
26157;SDS011;67284;44.782;10.282;2023-04-08T08:28:23;40.90;;;27.08;;
26157;SDS011;67284;44.782;10.282;2023-04-08T08:33:15;47.28;;;28.05;;
26157;SDS011;67284;44.782;10.282;2023-04-08T08:38:07;47.55;;;28.65;;
26157;SDS011;67284;44.782;10.282;2023-04-08T08:42:59;40.53;;;24.73;;
26157;SDS011;67284;44.782;10.282;2023-04-08T08:47:51;40.67;;;26.88;;
26157;SDS011;67284;44.782;10.282;2023-04-08T08:52:47;43.03;;;26.27;;
26157;SDS011;67284;44.782;10.282;2023-04-08T08:57:40;44.60;;;28.17;;
26157;SDS011;67284;44.782;10.282;2023-04-08T09:02:32;42.00;;;26.90;;
26157;SDS011;67284;44.782;10.282;2023-04-08T09:07:25;39.78;;;26.67;;
26157;SDS011;67284;44.782;10.282;2023-04-08T09:12:17;40.33;;;25.67;;
26157;SDS011;67284;44.782;10.282;2023-04-08T09:17:09;48.42;;;28.40;;
26157;SDS011;67284;44.782;10.282;2023-04-08T09:22:08;42.22;;;27.15;;
26157;SDS011;67284;44.782;10.282;2023-04-08T09:27:04;49.95;;;29.45;;
26157;SDS011;67284;44.782;10.282;2023-04-08T09:31:57;46.42;;;28.88;;
26157;SDS011;67284;44.782;10.282;2023-04-08T09:36:50;42.30;;;26.88;;
26157;SDS011;67284;44.782;10.282;2023-04-08T09:41:43;45.20;;;27.58;;
26157;SDS011;67284;44.782;10.282;2023-04-08T09:46:38;42.03;;;26.00;;
26157;SDS011;67284;44.782;10.282;2023-04-08T09:51:35;42.83;;;26.20;;
26157;SDS011;67284;44.782;10.282;2023-04-08T09:56:42;38.38;;;24.33;;
26157;SDS011;67284;44.782;10.282;2023-04-08T10:01:41;40.55;;;26.13;;
26157;SDS011;67284;44.782;10.282;2023-04-08T10:06:41;36.97;;;23.40;;
26157;SDS011;67284;44.782;10.282;2023-04-08T10:11:33;40.55;;;26.05;;
26157;SDS011;67284;44.782;10.282;2023-04-08T10:16:26;41.70;;;25.95;;
26157;SDS011;67284;44.782;10.282;2023-04-08T10:26:42;62.20;;;25.30;;
26157;SDS011;67284;44.782;10.282;2023-04-08T10:31:38;39.30;;;25.98;;
26157;SDS011;67284;44.782;10.282;2023-04-08T10:36:31;40.70;;;24.75;;
26157;SDS011;67284;44.782;10.282;2023-04-08T10:41:23;38.17;;;23.13;;
26157;SDS011;67284;44.782;10.282;2023-04-08T10:46:15;32.00;;;19.85;;
26157;SDS011;67284;44.782;10.282;2023-04-08T10:51:07;30.75;;;19.67;;
26157;SDS011;67284;44.782;10.282;2023-04-08T11:01:06;45.30;;;26.50;;
26157;SDS011;67284;44.782;10.282;2023-04-08T11:05:59;38.03;;;23.42;;
26157;SDS011;67284;44.782;10.282;2023-04-08T11:10:52;28.70;;;18.67;;
26157;SDS011;67284;44.782;10.282;2023-04-08T11:15:44;33.28;;;20.23;;
26157;SDS011;67284;44.782;10.282;2023-04-08T11:20:36;30.27;;;19.73;;
26157;SDS011;67284;44.782;10.282;2023-04-08T11:25:28;33.45;;;21.30;;
26157;SDS011;67284;44.782;10.282;2023-04-08T11:30:20;29.55;;;20.67;;
26157;SDS011;67284;44.782;10.282;2023-04-08T11:35:15;32.42;;;20.38;;
26157;SDS011;67284;44.782;10.282;2023-04-08T11:40:08;33.63;;;20.73;;
26157;SDS011;67284;44.782;10.282;2023-04-08T11:45:00;25.42;;;16.70;;
26157;SDS011;67284;44.782;10.282;2023-04-08T11:49:52;27.75;;;18.02;;
26157;SDS011;67284;44.782;10.282;2023-04-08T11:54:44;27.02;;;17.30;;
26157;SDS011;67284;44.782;10.282;2023-04-08T11:59:39;34.60;;;20.58;;
26157;SDS011;67284;44.782;10.282;2023-04-08T12:04:31;23.63;;;16.60;;
26157;SDS011;67284;44.782;10.282;2023-04-08T12:09:24;26.42;;;18.13;;
26157;SDS011;67284;44.782;10.282;2023-04-08T12:14:16;24.75;;;16.10;;
26157;SDS011;67284;44.782;10.282;2023-04-08T12:19:08;28.55;;;17.58;;
26157;SDS011;67284;44.782;10.282;2023-04-08T12:24:00;31.23;;;18.98;;
26157;SDS011;67284;44.782;10.282;2023-04-08T12:28:52;29.90;;;18.13;;
26157;SDS011;67284;44.782;10.282;2023-04-08T12:33:43;28.08;;;17.55;;
26157;SDS011;67284;44.782;10.282;2023-04-08T12:38:35;24.05;;;16.25;;
26157;SDS011;67284;44.782;10.282;2023-04-08T12:43:27;25.88;;;16.90;;
26157;SDS011;67284;44.782;10.282;2023-04-08T12:48:19;29.10;;;19.23;;
26157;SDS011;67284;44.782;10.282;2023-04-08T12:53:11;27.38;;;17.20;;
26157;SDS011;67284;44.782;10.282;2023-04-08T12:58:03;28.13;;;19.27;;
26157;SDS011;67284;44.782;10.282;2023-04-08T13:02:56;27.75;;;16.60;;
26157;SDS011;67284;44.782;10.282;2023-04-08T13:07:48;31.30;;;18.08;;
26157;SDS011;67284;44.782;10.282;2023-04-08T13:12:40;24.20;;;16.20;;
26157;SDS011;67284;44.782;10.282;2023-04-08T13:17:31;23.38;;;15.02;;
26157;SDS011;67284;44.782;10.282;2023-04-08T13:22:23;24.10;;;14.68;;
26157;SDS011;67284;44.782;10.282;2023-04-08T13:27:15;25.15;;;15.55;;
26157;SDS011;67284;44.782;10.282;2023-04-08T13:32:07;23.58;;;15.25;;
26157;SDS011;67284;44.782;10.282;2023-04-08T13:36:59;29.42;;;15.10;;
26157;SDS011;67284;44.782;10.282;2023-04-08T13:41:51;25.20;;;13.43;;
26157;SDS011;67284;44.782;10.282;2023-04-08T13:46:44;22.00;;;13.80;;
26157;SDS011;67284;44.782;10.282;2023-04-08T13:51:36;20.02;;;13.05;;
26157;SDS011;67284;44.782;10.282;2023-04-08T13:56:28;19.90;;;12.73;;
26157;SDS011;67284;44.782;10.282;2023-04-08T14:01:20;26.90;;;14.65;;
26157;SDS011;67284;44.782;10.282;2023-04-08T14:06:12;21.58;;;12.55;;
26157;SDS011;67284;44.782;10.282;2023-04-08T14:11:04;25.17;;;14.35;;
26157;SDS011;67284;44.782;10.282;2023-04-08T14:15:56;20.17;;;11.48;;
26157;SDS011;67284;44.782;10.282;2023-04-08T14:20:48;20.15;;;12.82;;
26157;SDS011;67284;44.782;10.282;2023-04-08T14:25:40;22.02;;;14.13;;
26157;SDS011;67284;44.782;10.282;2023-04-08T14:30:32;20.42;;;13.43;;
26157;SDS011;67284;44.782;10.282;2023-04-08T14:35:26;18.15;;;12.05;;
26157;SDS011;67284;44.782;10.282;2023-04-08T14:40:18;22.08;;;12.35;;
26157;SDS011;67284;44.782;10.282;2023-04-08T14:45:10;21.50;;;12.07;;
26157;SDS011;67284;44.782;10.282;2023-04-08T14:50:02;17.80;;;10.63;;
26157;SDS011;67284;44.782;10.282;2023-04-08T14:54:54;17.27;;;11.10;;
26157;SDS011;67284;44.782;10.282;2023-04-08T14:59:46;18.13;;;10.52;;
26157;SDS011;67284;44.782;10.282;2023-04-08T15:04:38;22.17;;;11.95;;
26157;SDS011;67284;44.782;10.282;2023-04-08T15:09:30;21.15;;;12.90;;
26157;SDS011;67284;44.782;10.282;2023-04-08T15:14:22;19.10;;;10.40;;
26157;SDS011;67284;44.782;10.282;2023-04-08T15:19:14;19.55;;;10.70;;
26157;SDS011;67284;44.782;10.282;2023-04-08T15:24:05;19.67;;;10.95;;
26157;SDS011;67284;44.782;10.282;2023-04-08T15:28:57;16.25;;;8.65;;
26157;SDS011;67284;44.782;10.282;2023-04-08T15:33:50;16.77;;;9.63;;
26157;SDS011;67284;44.782;10.282;2023-04-08T15:38:42;20.13;;;10.73;;
26157;SDS011;67284;44.782;10.282;2023-04-08T15:43:34;23.33;;;11.55;;
26157;SDS011;67284;44.782;10.282;2023-04-08T15:48:27;28.50;;;12.10;;
26157;SDS011;67284;44.782;10.282;2023-04-08T15:53:19;22.30;;;10.75;;
26157;SDS011;67284;44.782;10.282;2023-04-08T15:58:11;16.13;;;9.55;;
26157;SDS011;67284;44.782;10.282;2023-04-08T16:03:02;18.65;;;9.20;;
26157;SDS011;67284;44.782;10.282;2023-04-08T16:07:56;15.77;;;9.43;;
26157;SDS011;67284;44.782;10.282;2023-04-08T16:12:48;14.50;;;8.90;;
26157;SDS011;67284;44.782;10.282;2023-04-08T16:17:40;15.75;;;9.15;;
26157;SDS011;67284;44.782;10.282;2023-04-08T16:22:32;17.88;;;8.88;;
26157;SDS011;67284;44.782;10.282;2023-04-08T16:27:24;15.75;;;9.27;;
26157;SDS011;67284;44.782;10.282;2023-04-08T16:32:15;12.38;;;8.43;;
26157;SDS011;67284;44.782;10.282;2023-04-08T16:37:07;14.75;;;9.35;;
26157;SDS011;67284;44.782;10.282;2023-04-08T16:41:59;15.35;;;8.82;;
26157;SDS011;67284;44.782;10.282;2023-04-08T16:46:51;12.52;;;9.00;;
26157;SDS011;67284;44.782;10.282;2023-04-08T16:51:43;13.95;;;8.45;;
26157;SDS011;67284;44.782;10.282;2023-04-08T16:56:34;14.15;;;8.93;;
26157;SDS011;67284;44.782;10.282;2023-04-08T17:01:26;14.15;;;9.40;;
26157;SDS011;67284;44.782;10.282;2023-04-08T17:06:18;14.73;;;9.60;;
26157;SDS011;67284;44.782;10.282;2023-04-08T17:11:13;12.65;;;9.20;;
26157;SDS011;67284;44.782;10.282;2023-04-08T17:16:10;15.15;;;9.75;;
26157;SDS011;67284;44.782;10.282;2023-04-08T17:21:03;13.73;;;8.63;;
26157;SDS011;67284;44.782;10.282;2023-04-08T17:25:55;10.50;;;8.82;;
26157;SDS011;67284;44.782;10.282;2023-04-08T17:30:47;12.55;;;9.82;;
26157;SDS011;67284;44.782;10.282;2023-04-08T17:35:39;13.75;;;9.52;;
26157;SDS011;67284;44.782;10.282;2023-04-08T17:40:32;13.45;;;9.48;;
26157;SDS011;67284;44.782;10.282;2023-04-08T17:45:23;12.90;;;9.07;;
26157;SDS011;67284;44.782;10.282;2023-04-08T17:50:15;12.25;;;9.18;;
26157;SDS011;67284;44.782;10.282;2023-04-08T17:55:07;10.18;;;8.38;;
26157;SDS011;67284;44.782;10.282;2023-04-08T17:59:59;11.93;;;8.40;;
26157;SDS011;67284;44.782;10.282;2023-04-08T18:04:52;12.13;;;8.30;;
26157;SDS011;67284;44.782;10.282;2023-04-08T18:09:46;9.88;;;8.05;;
26157;SDS011;67284;44.782;10.282;2023-04-08T18:14:38;13.45;;;9.63;;
26157;SDS011;67284;44.782;10.282;2023-04-08T18:19:30;12.43;;;8.85;;
26157;SDS011;67284;44.782;10.282;2023-04-08T18:24:22;13.27;;;8.88;;
26157;SDS011;67284;44.782;10.282;2023-04-08T18:29:15;14.05;;;9.50;;
26157;SDS011;67284;44.782;10.282;2023-04-08T18:34:07;11.80;;;9.40;;
26157;SDS011;67284;44.782;10.282;2023-04-08T18:39:00;13.40;;;9.10;;
26157;SDS011;67284;44.782;10.282;2023-04-08T18:43:52;13.60;;;9.43;;
26157;SDS011;67284;44.782;10.282;2023-04-08T18:48:44;29.83;;;11.43;;
26157;SDS011;67284;44.782;10.282;2023-04-08T18:53:37;9.25;;;7.63;;
26157;SDS011;67284;44.782;10.282;2023-04-08T18:58:29;8.60;;;6.53;;
26157;SDS011;67284;44.782;10.282;2023-04-08T19:03:22;6.95;;;6.15;;
26157;SDS011;67284;44.782;10.282;2023-04-08T19:08:14;7.63;;;6.07;;
26157;SDS011;67284;44.782;10.282;2023-04-08T19:13:06;9.18;;;6.60;;
26157;SDS011;67284;44.782;10.282;2023-04-08T19:17:58;7.53;;;6.55;;
26157;SDS011;67284;44.782;10.282;2023-04-08T19:22:51;6.88;;;5.72;;
26157;SDS011;67284;44.782;10.282;2023-04-08T19:27:42;7.75;;;5.85;;
26157;SDS011;67284;44.782;10.282;2023-04-08T19:32:36;8.32;;;6.13;;
26157;SDS011;67284;44.782;10.282;2023-04-08T19:37:29;10.90;;;6.40;;
26157;SDS011;67284;44.782;10.282;2023-04-08T19:42:20;11.50;;;5.68;;
26157;SDS011;67284;44.782;10.282;2023-04-08T19:47:12;7.57;;;6.05;;
26157;SDS011;67284;44.782;10.282;2023-04-08T19:52:04;8.20;;;5.90;;
26157;SDS011;67284;44.782;10.282;2023-04-08T19:56:56;7.57;;;6.03;;
26157;SDS011;67284;44.782;10.282;2023-04-08T20:01:49;12.35;;;6.78;;
26157;SDS011;67284;44.782;10.282;2023-04-08T20:06:41;7.85;;;7.05;;
26157;SDS011;67284;44.782;10.282;2023-04-08T20:11:33;9.25;;;6.45;;
26157;SDS011;67284;44.782;10.282;2023-04-08T20:16:25;10.98;;;6.65;;
26157;SDS011;67284;44.782;10.282;2023-04-08T20:21:17;8.50;;;7.18;;
26157;SDS011;67284;44.782;10.282;2023-04-08T20:26:10;8.80;;;6.95;;
26157;SDS011;67284;44.782;10.282;2023-04-08T20:31:02;10.90;;;6.97;;
26157;SDS011;67284;44.782;10.282;2023-04-08T20:35:54;8.98;;;6.60;;
26157;SDS011;67284;44.782;10.282;2023-04-08T20:40:47;8.60;;;6.80;;
26157;SDS011;67284;44.782;10.282;2023-04-08T20:45:39;9.00;;;8.02;;
26157;SDS011;67284;44.782;10.282;2023-04-08T20:50:31;8.23;;;7.35;;
26157;SDS011;67284;44.782;10.282;2023-04-08T20:55:23;9.23;;;7.78;;
26157;SDS011;67284;44.782;10.282;2023-04-08T21:00:15;9.15;;;7.20;;
26157;SDS011;67284;44.782;10.282;2023-04-08T21:05:07;11.10;;;8.15;;
26157;SDS011;67284;44.782;10.282;2023-04-08T21:09:59;7.25;;;6.28;;
26157;SDS011;67284;44.782;10.282;2023-04-08T21:14:51;6.80;;;6.10;;
26157;SDS011;67284;44.782;10.282;2023-04-08T21:19:43;7.28;;;6.30;;
26157;SDS011;67284;44.782;10.282;2023-04-08T21:24:36;6.50;;;5.50;;
26157;SDS011;67284;44.782;10.282;2023-04-08T21:29:28;7.53;;;5.43;;
26157;SDS011;67284;44.782;10.282;2023-04-08T21:34:20;7.43;;;5.95;;
26157;SDS011;67284;44.782;10.282;2023-04-08T21:39:12;8.00;;;5.93;;
26157;SDS011;67284;44.782;10.282;2023-04-08T21:44:04;6.65;;;5.95;;
26157;SDS011;67284;44.782;10.282;2023-04-08T21:48:56;6.47;;;5.47;;
26157;SDS011;67284;44.782;10.282;2023-04-08T21:53:48;8.80;;;6.63;;
26157;SDS011;67284;44.782;10.282;2023-04-08T21:58:41;9.73;;;7.03;;
26157;SDS011;67284;44.782;10.282;2023-04-08T22:03:33;9.63;;;6.70;;
26157;SDS011;67284;44.782;10.282;2023-04-08T22:08:25;6.47;;;5.70;;
26157;SDS011;67284;44.782;10.282;2023-04-08T22:13:18;6.50;;;5.65;;
26157;SDS011;67284;44.782;10.282;2023-04-08T22:18:10;7.07;;;6.10;;
26157;SDS011;67284;44.782;10.282;2023-04-08T22:23:02;7.43;;;6.68;;
26157;SDS011;67284;44.782;10.282;2023-04-08T22:27:54;8.48;;;6.28;;
26157;SDS011;67284;44.782;10.282;2023-04-08T22:32:46;8.10;;;6.72;;
26157;SDS011;67284;44.782;10.282;2023-04-08T22:37:38;7.65;;;6.72;;
26157;SDS011;67284;44.782;10.282;2023-04-08T22:42:32;10.75;;;7.13;;
26157;SDS011;67284;44.782;10.282;2023-04-08T22:47:23;9.80;;;7.47;;
26157;SDS011;67284;44.782;10.282;2023-04-08T22:52:15;10.13;;;6.72;;
26157;SDS011;67284;44.782;10.282;2023-04-08T22:57:07;9.63;;;7.57;;
26157;SDS011;67284;44.782;10.282;2023-04-08T23:01:59;9.10;;;7.57;;
26157;SDS011;67284;44.782;10.282;2023-04-08T23:06:51;12.50;;;7.30;;
26157;SDS011;67284;44.782;10.282;2023-04-08T23:11:43;9.95;;;8.02;;
26157;SDS011;67284;44.782;10.282;2023-04-08T23:16:35;10.65;;;7.95;;
26157;SDS011;67284;44.782;10.282;2023-04-08T23:21:27;10.02;;;8.38;;
26157;SDS011;67284;44.782;10.282;2023-04-08T23:26:19;10.15;;;8.70;;
26157;SDS011;67284;44.782;10.282;2023-04-08T23:31:15;12.57;;;8.30;;
26157;SDS011;67284;44.782;10.282;2023-04-08T23:36:07;9.95;;;8.90;;
26157;SDS011;67284;44.782;10.282;2023-04-08T23:41:00;11.43;;;8.98;;
26157;SDS011;67284;44.782;10.282;2023-04-08T23:45:52;13.80;;;9.07;;
26157;SDS011;67284;44.782;10.282;2023-04-08T23:50:44;11.45;;;9.60;;
26157;SDS011;67284;44.782;10.282;2023-04-08T23:55:41;14.10;;;9.15;;
